Time;durP1;ratioP1;P1;durP2;ratioP2;P2;SDS_P1;SDS_P2;PMS_P1;PMS_P2;Temp;Humidity;BMP_temperature;BMP_pressure;BME280_temperature;BME280_humidity;BME280_pressure;Samples;Min_cycle;Max_cycle;Signal;HPM_P1;HPM_P2
2021/07/20 00:01:00;;;;;;;;;;;23.90;76.70;;;;;;5187008;28;19931;-55
2021/07/20 00:03:33;;;;;;;;;;;23.90;76.50;;;;;;5175792;28;19948;-56
2021/07/20 00:06:05;;;;;;;;;;;23.80;76.60;;;;;;5188283;28;19936;-58
2021/07/20 00:08:38;;;;;;;;;;;23.80;76.60;;;;;;5188407;28;19929;-57
2021/07/20 00:11:10;;;;;;;;;;;23.80;76.50;;;;;;5193050;28;20412;-58
2021/07/20 00:13:42;;;;;;;;;;;23.80;76.50;;;;;;5186365;28;19929;-58
2021/07/20 00:16:15;;;;;;;;;;;23.80;76.50;;;;;;5189624;28;20448;-58
2021/07/20 00:18:48;;;;;;;;;;;23.80;76.50;;;;;;5185992;28;20010;-57
2021/07/20 00:21:20;;;;;;;;;;;23.80;76.50;;;;;;5191156;28;19928;-58
2021/07/20 00:23:52;;;;;;;;;;;23.80;76.40;;;;;;5188272;28;19929;-58
2021/07/20 00:26:24;;;;;;;;;;;23.80;76.80;;;;;;5188261;28;19952;-56
2021/07/20 00:28:56;;;;;;;;;;;23.80;76.50;;;;;;5187161;28;19929;-58
2021/07/20 00:31:29;;;;;;;;;;;23.80;76.50;;;;;;5185428;28;19928;-57
2021/07/20 00:34:09;;;;;;;;;;;23.80;76.40;;;;;;5188304;28;19924;-57
2021/07/20 00:36:42;;;;;;;;;;;23.80;76.10;;;;;;5188510;28;19929;-55
2021/07/20 00:39:14;;;;;;;;;;;23.80;76.20;;;;;;5183532;28;19928;-58
2021/07/20 00:41:46;;;;;;;;;;;23.80;76.20;;;;;;5190745;28;20294;-57
2021/07/20 00:44:19;;;;;;;;;;;23.80;75.70;;;;;;5191947;28;19925;-56
2021/07/20 00:46:53;;;;;;;;;;;23.70;75.70;;;;;;5187408;28;19932;-56
2021/07/20 00:49:25;;;;;;;;;;;23.70;76.00;;;;;;5187112;28;20381;-58
2021/07/20 00:51:57;;;;;;;;;;;23.80;75.90;;;;;;5191002;28;19924;-57
2021/07/20 00:54:30;;;;;;;;;;;23.70;75.40;;;;;;5189025;28;19943;-58
2021/07/20 00:57:02;;;;;;;;;;;23.80;75.40;;;;;;5192267;28;19932;-58
2021/07/20 00:59:37;;;;;;;;;;;23.70;75.40;;;;;;5176727;28;19925;-58
2021/07/20 01:02:09;;;;;;;;;;;23.80;75.70;;;;;;5189615;28;19928;-55
2021/07/20 01:04:41;;;;;;;;;;;23.70;75.10;;;;;;5190912;28;19929;-57
2021/07/20 01:07:14;;;;;;;;;;;23.70;75.10;;;;;;5189681;28;19936;-57
2021/07/20 01:09:47;;;;;;;;;;;23.70;75.30;;;;;;5205509;28;19921;-58
2021/07/20 01:12:20;;;;;;;;;;;23.70;74.90;;;;;;5187526;28;19939;-56
2021/07/20 01:14:54;;;;;;;;;;;23.70;74.70;;;;;;5176314;28;19936;-55
2021/07/20 01:17:27;;;;;;;;;;;23.70;74.70;;;;;;5176095;28;19928;-57
2021/07/20 01:20:06;;;;;;;;;;;23.70;74.70;;;;;;5180031;28;20337;-55
2021/07/20 01:22:40;;;;;;;;;;;23.70;74.50;;;;;;5183852;28;19924;-57
2021/07/20 01:25:15;;;;;;;;;;;23.70;74.50;;;;;;5160499;28;19932;-57
2021/07/20 01:27:51;;;;;;;;;;;23.70;74.40;;;;;;5182850;28;19933;-58
2021/07/20 01:30:23;;;;;;;;;;;23.70;74.80;;;;;;5186163;28;20484;-58
2021/07/20 01:32:56;;;;;;;;;;;23.70;74.90;;;;;;5174816;28;20345;-56
2021/07/20 01:35:30;;;;;;;;;;;23.70;74.70;;;;;;5180087;28;20368;-57
2021/07/20 01:38:05;;;;;;;;;;;23.60;74.40;;;;;;5179249;28;19936;-57
2021/07/20 01:40:38;;;;;;;;;;;23.60;74.60;;;;;;5218098;28;19924;-57
2021/07/20 01:43:11;;;;;;;;;;;23.60;74.20;;;;;;5200556;28;19932;-58
2021/07/20 01:45:52;;;;;;;;;;;23.60;74.10;;;;;;5185373;28;19931;-58
2021/07/20 01:48:28;;;;;;;;;;;23.60;74.20;;;;;;5192698;28;19925;-58
2021/07/20 01:51:03;;;;;;;;;;;23.60;74.10;;;;;;5188417;28;19932;-58
2021/07/20 01:53:36;;;;;;;;;;;23.60;74.20;;;;;;5181528;28;21259;-57
2021/07/20 01:56:09;;;;;;;;;;;23.60;73.80;;;;;;5200784;28;19924;-56
2021/07/20 01:58:42;;;;;;;;;;;23.60;73.90;;;;;;5183721;28;19929;-57
2021/07/20 02:01:43;;;;;;;;;;;23.60;74.50;;;;;;5200297;28;19932;-54
2021/07/20 02:08:24;;;;;;;;;;;23.60;73.80;;;;;;5189426;28;19951;-56
2021/07/20 02:10:41;;;;;;;;;;;23.60;73.80;;;;;;5216136;28;19936;-58
2021/07/20 02:13:24;;;;;;;;;;;23.50;73.70;;;;;;5219772;28;19929;-55
2021/07/20 02:16:11;;;;;;;;;;;23.50;73.60;;;;;;5180932;28;19939;-57
2021/07/20 02:18:52;;;;;;;;;;;23.50;73.70;;;;;;5207587;28;19931;-58
2021/07/20 02:21:42;;;;;;;;;;;23.50;73.70;;;;;;5189792;28;20459;-57
2021/07/20 02:24:15;;;;;;;;;;;23.50;73.70;;;;;;5187336;28;19935;-57
2021/07/20 02:26:48;;;;;;;;;;;23.50;73.70;;;;;;5205787;28;19924;-58
2021/07/20 02:29:23;;;;;;;;;;;23.50;73.70;;;;;;5178055;28;19951;-58
2021/07/20 02:31:57;;;;;;;;;;;23.50;73.50;;;;;;5194229;28;19929;-56
2021/07/20 02:34:30;;;;;;;;;;;23.50;73.90;;;;;;5202907;28;20562;-57
2021/07/20 02:37:04;;;;;;;;;;;23.50;73.50;;;;;;5181743;28;20304;-58
2021/07/20 02:39:38;;;;;;;;;;;23.50;73.50;;;;;;5186181;28;20396;-56
2021/07/20 02:42:12;;;;;;;;;;;23.50;73.70;;;;;;5199100;28;20400;-58
2021/07/20 02:44:44;;;;;;;;;;;23.50;73.70;;;;;;5183839;28;20376;-58
2021/07/20 02:47:16;;;;;;;;;;;23.50;73.60;;;;;;5180270;28;20300;-55
2021/07/20 02:49:50;;;;;;;;;;;23.50;73.50;;;;;;5216996;28;19925;-57
2021/07/20 02:52:26;;;;;;;;;;;23.50;73.50;;;;;;5186231;28;19928;-57
2021/07/20 02:55:00;;;;;;;;;;;23.50;73.40;;;;;;5200821;28;19925;-59
2021/07/20 02:57:36;;;;;;;;;;;23.50;73.40;;;;;;5190633;28;20037;-54
2021/07/20 03:00:12;;;;;;;;;;;23.40;73.20;;;;;;5198813;28;19940;-56
2021/07/20 03:02:56;;;;;;;;;;;23.40;73.20;;;;;;5185394;28;19924;-57
2021/07/20 03:05:30;;;;;;;;;;;23.40;73.20;;;;;;5189452;28;19929;-58
2021/07/20 03:08:05;;;;;;;;;;;23.40;73.20;;;;;;5185736;28;19928;-56
2021/07/20 03:10:45;;;;;;;;;;;23.40;73.10;;;;;;5185158;28;19933;-54
2021/07/20 03:13:18;;;;;;;;;;;23.40;73.10;;;;;;5200853;28;19928;-58
2021/07/20 03:15:56;;;;;;;;;;;23.40;73.00;;;;;;5195319;28;20654;-56
2021/07/20 03:18:29;;;;;;;;;;;23.40;73.00;;;;;;5186850;28;20309;-58
2021/07/20 03:21:04;;;;;;;;;;;23.40;72.90;;;;;;5183286;28;20108;-57
2021/07/20 03:23:37;;;;;;;;;;;23.40;72.90;;;;;;5189246;28;19929;-53
2021/07/20 03:26:09;;;;;;;;;;;23.40;72.80;;;;;;5218381;28;19935;-56
2021/07/20 03:28:44;;;;;;;;;;;23.40;72.70;;;;;;5200175;28;19928;-58
2021/07/20 03:31:20;;;;;;;;;;;23.40;72.80;;;;;;5202809;28;19921;-58
2021/07/20 03:33:58;;;;;;;;;;;23.40;72.70;;;;;;5191362;28;19950;-53
2021/07/20 03:36:38;;;;;;;;;;;23.40;72.70;;;;;;5185064;28;20385;-56
2021/07/20 03:39:12;;;;;;;;;;;23.40;72.60;;;;;;5202928;28;19932;-57
2021/07/20 03:41:45;;;;;;;;;;;23.30;72.70;;;;;;5189553;28;19924;-57
2021/07/20 03:44:19;;;;;;;;;;;23.30;72.80;;;;;;5201702;28;19925;-54
2021/07/20 03:46:52;;;;;;;;;;;23.30;72.70;;;;;;5184960;28;19925;-58
2021/07/20 03:49:27;;;;;;;;;;;23.30;72.80;;;;;;5181228;28;19925;-57
2021/07/20 03:52:00;;;;;;;;;;;23.30;72.60;;;;;;5183792;28;19935;-57
2021/07/20 03:54:34;;;;;;;;;;;23.30;72.50;;;;;;5205154;28;20033;-58
2021/07/20 03:57:07;;;;;;;;;;;23.30;72.60;;;;;;5200929;28;19924;-57
2021/07/20 03:59:48;;;;;;;;;;;23.30;72.60;;;;;;5203036;28;19925;-58
2021/07/20 04:02:47;;;;;;;;;;;23.30;72.60;;;;;;5206305;28;19983;-57
2021/07/20 04:05:30;;;;;;;;;;;23.30;72.70;;;;;;5172477;28;20328;-57
2021/07/20 04:08:02;;;;;;;;;;;23.30;72.70;;;;;;5188506;28;20389;-54
2021/07/20 04:10:45;;;;;;;;;;;23.30;72.70;;;;;;5185642;28;19928;-57
2021/07/20 04:13:24;;;;;;;;;;;23.30;72.60;;;;;;5184752;28;19925;-57
2021/07/20 04:16:06;;;;;;;;;;;23.30;72.70;;;;;;5185063;28;19931;-57
2021/07/20 04:18:41;;;;;;;;;;;23.30;72.80;;;;;;5200237;28;19932;-57
2021/07/20 04:21:21;;;;;;;;;;;23.30;72.90;;;;;;5177836;28;19925;-55
2021/07/20 04:23:54;;;;;;;;;;;23.30;72.90;;;;;;5185317;28;19925;-57
2021/07/20 04:26:37;;;;;;;;;;;23.30;72.90;;;;;;5200904;28;20085;-56
2021/07/20 04:29:10;;;;;;;;;;;23.30;72.80;;;;;;5175920;28;20415;-56
2021/07/20 04:31:43;;;;;;;;;;;23.30;73.00;;;;;;5190049;28;20404;-55
2021/07/20 04:34:18;;;;;;;;;;;23.30;73.00;;;;;;5198397;28;19928;-57
2021/07/20 04:37:28;;;;;;;;;;;23.30;73.10;;;;;;5195654;28;19924;-57
2021/07/20 04:40:04;;;;;;;;;;;23.30;73.30;;;;;;5185937;28;19931;-58
2021/07/20 04:42:40;;;;;;;;;;;23.30;73.30;;;;;;5180148;28;19929;-57
2021/07/20 04:45:13;;;;;;;;;;;23.30;73.40;;;;;;5210414;28;19925;-57
2021/07/20 04:47:49;;;;;;;;;;;23.30;73.50;;;;;;5177396;28;19951;-57
2021/07/20 04:50:42;;;;;;;;;;;23.30;73.60;;;;;;5169325;28;21591;-58
2021/07/20 04:53:16;;;;;;;;;;;23.20;73.60;;;;;;5168928;28;19925;-58
2021/07/20 04:55:50;;;;;;;;;;;23.30;73.80;;;;;;5178671;28;19936;-58
2021/07/20 04:58:23;;;;;;;;;;;23.30;73.80;;;;;;5186917;28;20309;-57
2021/07/20 05:00:55;;;;;;;;;;;23.30;73.90;;;;;;5185978;28;19929;-58
2021/07/20 05:03:30;;;;;;;;;;;23.30;73.60;;;;;;5187381;28;19951;-56
2021/07/20 05:06:03;;;;;;;;;;;23.20;73.20;;;;;;5163343;28;19928;-59
2021/07/20 05:08:44;;;;;;;;;;;23.10;73.20;;;;;;5199090;28;19925;-58
2021/07/20 05:11:18;;;;;;;;;;;23.10;73.50;;;;;;5169761;28;20537;-54
2021/07/20 05:13:51;;;;;;;;;;;23.00;73.50;;;;;;5207445;28;19924;-58
2021/07/20 05:16:27;;;;;;;;;;;22.90;73.60;;;;;;5193704;28;19935;-56
2021/07/20 05:19:10;;;;;;;;;;;22.90;74.00;;;;;;5197619;28;19939;-58
2021/07/20 05:21:55;;;;;;;;;;;22.80;74.20;;;;;;5175416;28;19929;-57
2021/07/20 05:24:33;;;;;;;;;;;22.80;74.30;;;;;;5165142;28;20660;-57
2021/07/20 05:27:09;;;;;;;;;;;22.70;74.40;;;;;;5184819;28;19925;-57
2021/07/20 05:29:46;;;;;;;;;;;22.70;74.40;;;;;;5182086;28;19925;-56
2021/07/20 05:32:51;;;;;;;;;;;22.70;74.70;;;;;;5194194;28;19929;-57
2021/07/20 05:35:32;;;;;;;;;;;22.70;74.50;;;;;;5194321;28;19925;-58
2021/07/20 05:38:07;;;;;;;;;;;22.60;74.50;;;;;;5200857;28;19931;-58
2021/07/20 05:40:41;;;;;;;;;;;22.60;74.50;;;;;;5200861;28;19932;-57
2021/07/20 05:43:14;;;;;;;;;;;22.70;74.70;;;;;;5219892;28;19932;-58
2021/07/20 05:45:48;;;;;;;;;;;22.60;74.40;;;;;;5191540;28;19935;-55
2021/07/20 05:48:22;;;;;;;;;;;22.60;74.40;;;;;;5200185;28;20442;-58
2021/07/20 05:50:58;;;;;;;;;;;22.60;74.60;;;;;;5189906;28;20328;-55
2021/07/20 05:53:37;;;;;;;;;;;22.60;74.70;;;;;;5186272;28;20040;-56
2021/07/20 05:56:33;;;;;;;;;;;22.50;74.90;;;;;;5178210;28;19928;-56
2021/07/20 05:59:26;;;;;;;;;;;22.50;75.00;;;;;;5191845;28;19936;-54
2021/07/20 06:01:59;;;;;;;;;;;22.50;75.40;;;;;;5184062;28;19928;-56
2021/07/20 06:04:33;;;;;;;;;;;22.50;75.40;;;;;;5199596;28;19921;-49
2021/07/20 06:07:06;;;;;;;;;;;22.60;75.70;;;;;;5197388;28;19928;-55
2021/07/20 06:09:41;;;;;;;;;;;22.60;75.70;;;;;;5202110;28;20416;-53
2021/07/20 06:12:14;;;;;;;;;;;22.70;75.80;;;;;;5206366;28;19925;-55
2021/07/20 06:14:47;;;;;;;;;;;22.70;75.80;;;;;;5202838;28;19925;-52
2021/07/20 06:17:21;;;;;;;;;;;22.80;75.80;;;;;;5199192;28;19935;-52
2021/07/20 06:19:55;;;;;;;;;;;22.80;75.80;;;;;;5203556;28;19924;-55
2021/07/20 06:22:30;;;;;;;;;;;22.90;75.70;;;;;;5180308;28;19932;-51
2021/07/20 06:25:05;;;;;;;;;;;22.90;75.70;;;;;;5182613;28;20693;-53
2021/07/20 06:27:38;;;;;;;;;;;22.90;75.60;;;;;;5197561;28;19928;-54
2021/07/20 06:30:11;;;;;;;;;;;23.00;75.70;;;;;;5180968;28;19928;-54
2021/07/20 06:32:43;;;;;;;;;;;23.00;75.60;;;;;;5199659;28;19925;-54
2021/07/20 06:35:16;;;;;;;;;;;23.00;75.50;;;;;;5178887;28;20316;-51
2021/07/20 06:37:49;;;;;;;;;;;23.00;75.50;;;;;;5197318;28;19933;-55
2021/07/20 06:40:21;;;;;;;;;;;23.10;75.50;;;;;;5200560;28;19935;-50
2021/07/20 06:42:55;;;;;;;;;;;23.10;75.40;;;;;;5192225;28;19929;-50
2021/07/20 06:45:31;;;;;;;;;;;23.10;75.40;;;;;;5195895;28;19924;-52
2021/07/20 06:48:03;;;;;;;;;;;23.20;75.50;;;;;;5193098;28;19925;-50
2021/07/20 06:50:40;;;;;;;;;;;23.20;75.50;;;;;;5188963;28;21327;-51
2021/07/20 06:53:13;;;;;;;;;;;23.20;75.50;;;;;;5183140;28;19935;-54
2021/07/20 06:55:49;;;;;;;;;;;23.20;75.50;;;;;;5190752;28;20164;-53
2021/07/20 06:58:23;;;;;;;;;;;23.20;75.40;;;;;;5192988;28;20021;-55
2021/07/20 07:00:59;;;;;;;;;;;23.20;75.40;;;;;;5194613;28;19925;-53
2021/07/20 07:03:39;;;;;;;;;;;23.30;75.30;;;;;;5193495;28;19935;-51
2021/07/20 07:06:12;;;;;;;;;;;23.30;75.20;;;;;;5205131;28;19925;-55
2021/07/20 07:08:45;;;;;;;;;;;23.30;75.10;;;;;;5193918;28;20710;-52
2021/07/20 07:11:18;;;;;;;;;;;23.30;75.10;;;;;;5191790;28;19952;-54
2021/07/20 07:13:51;;;;;;;;;;;23.30;75.00;;;;;;5188034;28;19935;-53
2021/07/20 07:16:23;;;;;;;;;;;23.30;75.00;;;;;;5192458;28;19944;-55
2021/07/20 07:18:56;;;;;;;;;;;23.30;74.90;;;;;;5167805;28;19933;-52
2021/07/20 07:21:28;;;;;;;;;;;23.30;74.80;;;;;;5214302;28;19924;-51
2021/07/20 07:24:01;;;;;;;;;;;23.30;74.80;;;;;;5195602;28;19925;-55
2021/07/20 07:26:33;;;;;;;;;;;23.30;74.70;;;;;;5212235;28;19925;-54
2021/07/20 07:29:07;;;;;;;;;;;23.30;74.60;;;;;;5191274;28;21044;-50
2021/07/20 07:31:40;;;;;;;;;;;23.40;74.60;;;;;;5193832;28;19924;-50
2021/07/20 07:34:12;;;;;;;;;;;23.40;74.60;;;;;;5187969;28;19925;-56
2021/07/20 07:36:45;;;;;;;;;;;23.40;74.50;;;;;;5182119;28;19936;-50
2021/07/20 07:39:19;;;;;;;;;;;23.40;74.40;;;;;;5192330;28;20013;-56
2021/07/20 07:41:53;;;;;;;;;;;23.40;74.30;;;;;;5195794;28;20451;-55
2021/07/20 07:44:25;;;;;;;;;;;23.40;74.30;;;;;;5193055;28;19928;-56
2021/07/20 07:46:59;;;;;;;;;;;23.40;74.40;;;;;;5189713;28;20297;-53
2021/07/20 07:49:34;;;;;;;;;;;23.40;74.40;;;;;;5193410;28;20408;-56
2021/07/20 07:52:08;;;;;;;;;;;23.40;74.40;;;;;;5191323;28;20547;-55
2021/07/20 07:54:41;;;;;;;;;;;23.40;74.50;;;;;;5192104;28;20777;-53
2021/07/20 07:57:20;;;;;;;;;;;23.40;74.50;;;;;;5189988;28;19935;-54
2021/07/20 07:59:54;;;;;;;;;;;23.50;74.60;;;;;;5190129;28;19929;-53
2021/07/20 08:02:30;;;;;;;;;;;23.50;74.60;;;;;;5192276;28;20316;-52
2021/07/20 08:05:04;;;;;;;;;;;23.40;74.40;;;;;;5189898;28;19929;-56
2021/07/20 08:07:37;;;;;;;;;;;23.50;74.50;;;;;;5181404;28;19941;-53
2021/07/20 08:10:10;;;;;;;;;;;23.50;74.40;;;;;;5186721;28;19936;-55
2021/07/20 08:12:44;;;;;;;;;;;23.50;74.30;;;;;;5195370;28;20451;-56
2021/07/20 08:15:17;;;;;;;;;;;23.50;74.20;;;;;;5193480;28;19928;-53
2021/07/20 08:17:50;;;;;;;;;;;23.50;74.20;;;;;;5202472;28;19935;-52
2021/07/20 08:20:23;;;;;;;;;;;23.50;74.20;;;;;;5193574;28;19936;-54
2021/07/20 08:22:55;;;;;;;;;;;23.50;74.10;;;;;;5199024;28;20774;-56
2021/07/20 08:25:33;;;;;;;;;;;23.50;74.10;;;;;;4633276;28;10000567;-54
2021/07/20 08:28:08;;;;;;;;;;;23.60;74.10;;;;;;5198277;28;20845;-55
2021/07/20 08:30:42;;;;;;;;;;;23.60;74.00;;;;;;5198906;28;20304;-54
2021/07/20 08:33:19;;;;;;;;;;;23.60;73.80;;;;;;5203053;28;19950;-55
2021/07/20 08:35:54;;;;;;;;;;;23.60;73.60;;;;;;5197454;28;19924;-56
2021/07/20 08:38:27;;;;;;;;;;;23.60;73.50;;;;;;5203179;28;19929;-56
2021/07/20 08:41:03;;;;;;;;;;;23.60;73.40;;;;;;5196596;28;20634;-53
2021/07/20 08:43:38;;;;;;;;;;;23.60;73.30;;;;;;5197857;28;19929;-56
2021/07/20 08:46:19;;;;;;;;;;;23.60;73.30;;;;;;5197048;28;19931;-56
2021/07/20 08:49:05;;;;;;;;;;;23.60;73.30;;;;;;5182146;28;19936;-55
2021/07/20 08:51:41;;;;;;;;;;;23.60;73.30;;;;;;5193907;28;19947;-54
2021/07/20 08:54:23;;;;;;;;;;;23.60;73.20;;;;;;5192759;28;20305;-51
2021/07/20 08:57:00;;;;;;;;;;;23.70;73.30;;;;;;5194748;28;20408;-52
2021/07/20 08:59:58;;;;;;;;;;;23.70;73.30;;;;;;5194103;28;19925;-55
2021/07/20 09:02:34;;;;;;;;;;;23.70;73.30;;;;;;5179961;28;19929;-53
2021/07/20 09:05:06;;;;;;;;;;;23.70;73.30;;;;;;5198364;28;19931;-55
2021/07/20 09:07:40;;;;;;;;;;;23.70;73.40;;;;;;5190438;28;19929;-54
2021/07/20 09:10:12;;;;;;;;;;;23.60;73.30;;;;;;5200001;28;20525;-54
2021/07/20 09:12:46;;;;;;;;;;;23.70;73.40;;;;;;5196404;28;19935;-55
2021/07/20 09:15:25;;;;;;;;;;;23.60;73.40;;;;;;5197620;28;20248;-56
2021/07/20 09:18:03;;;;;;;;;;;23.70;73.50;;;;;;5215559;28;19932;-53
2021/07/20 09:20:36;;;;;;;;;;;23.70;73.50;;;;;;5200983;28;20436;-55
2021/07/20 09:23:13;;;;;;;;;;;23.70;73.30;;;;;;5199154;28;20373;-54
2021/07/20 09:25:53;;;;;;;;;;;23.70;73.20;;;;;;5199724;28;19935;-51
2021/07/20 09:28:30;;;;;;;;;;;23.70;73.10;;;;;;5203321;28;20309;-56
2021/07/20 09:31:06;;;;;;;;;;;23.70;73.00;;;;;;5200513;28;19925;-56
2021/07/20 09:33:44;;;;;;;;;;;23.70;73.00;;;;;;5200356;28;20301;-56
2021/07/20 09:36:25;;;;;;;;;;;23.70;72.90;;;;;;5200067;28;19939;-52
2021/07/20 09:39:00;;;;;;;;;;;23.70;72.90;;;;;;5198822;28;20161;-52
2021/07/20 09:41:39;;;;;;;;;;;23.70;72.80;;;;;;5199948;28;19931;-54
2021/07/20 09:44:36;;;;;;;;;;;23.70;72.80;;;;;;5197730;28;19924;-51
2021/07/20 09:47:11;;;;;;;;;;;23.80;72.90;;;;;;5198698;28;20526;-55
2021/07/20 09:50:03;;;;;;;;;;;23.70;72.80;;;;;;5197895;28;19932;-54
2021/07/20 09:52:38;;;;;;;;;;;23.70;72.80;;;;;;5199117;28;20296;-55
2021/07/20 09:55:17;;;;;;;;;;;23.70;72.80;;;;;;5199276;28;20488;-53
2021/07/20 09:58:13;;;;;;;;;;;23.80;72.90;;;;;;5198526;28;20001;-52
2021/07/20 10:00:55;;;;;;;;;;;23.80;72.90;;;;;;5198714;28;20399;-53
2021/07/20 10:03:39;;;;;;;;;;;23.80;72.90;;;;;;5205057;28;19924;-54
2021/07/20 10:06:17;;;;;;;;;;;23.80;72.90;;;;;;5208255;28;19931;-52
2021/07/20 10:09:01;;;;;;;;;;;23.80;72.90;;;;;;5205252;28;19936;-56
2021/07/20 10:11:40;;;;;;;;;;;23.80;72.90;;;;;;5206404;28;19943;-55
2021/07/20 10:14:12;;;;;;;;;;;23.80;72.90;;;;;;5191212;28;19928;-52
2021/07/20 10:17:03;;;;;;;;;;;23.80;72.80;;;;;;5201459;28;19925;-54
2021/07/20 10:19:43;;;;;;;;;;;23.80;72.80;;;;;;5196785;28;20791;-52
2021/07/20 10:22:19;;;;;;;;;;;23.80;72.80;;;;;;5194092;28;19940;-53
2021/07/20 10:24:54;;;;;;;;;;;23.90;72.90;;;;;;5197326;28;19925;-55
2021/07/20 10:27:31;;;;;;;;;;;23.80;72.90;;;;;;4156784;28;10000448;-55
2021/07/20 10:30:06;;;;;;;;;;;23.80;72.80;;;;;;5201158;28;19929;-53
2021/07/20 10:32:57;;;;;;;;;;;23.90;72.90;;;;;;5205491;28;19943;-53
2021/07/20 10:35:49;;;;;;;;;;;23.90;72.90;;;;;;5178646;28;20555;-54
2021/07/20 10:38:24;;;;;;;;;;;23.90;72.80;;;;;;5199912;28;20475;-54
2021/07/20 10:40:57;;;;;;;;;;;23.90;72.80;;;;;;5201436;28;19936;-56
2021/07/20 10:43:35;;;;;;;;;;;23.90;72.70;;;;;;5197182;28;19932;-53
2021/07/20 10:46:10;;;;;;;;;;;23.90;72.70;;;;;;5198430;28;19932;-55
2021/07/20 10:48:45;;;;;;;;;;;23.90;72.80;;;;;;5202532;28;19924;-51
2021/07/20 10:51:20;;;;;;;;;;;23.90;72.70;;;;;;5203094;28;19924;-54
2021/07/20 10:54:02;;;;;;;;;;;23.90;72.70;;;;;;5194739;28;20693;-54
2021/07/20 10:56:41;;;;;;;;;;;23.90;72.70;;;;;;5199061;28;19948;-57
2021/07/20 10:59:22;;;;;;;;;;;23.90;72.60;;;;;;5195451;28;19925;-55
2021/07/20 11:02:04;;;;;;;;;;;24.00;72.70;;;;;;5197595;28;19931;-55
2021/07/20 11:04:49;;;;;;;;;;;23.90;72.60;;;;;;5185553;28;19932;-56
2021/07/20 11:07:47;;;;;;;;;;;24.00;72.50;;;;;;5197233;28;19929;-54
2021/07/20 11:10:22;;;;;;;;;;;24.00;72.50;;;;;;5190805;28;19929;-56
2021/07/20 11:12:57;;;;;;;;;;;24.00;72.50;;;;;;5197015;28;19924;-56
2021/07/20 11:15:30;;;;;;;;;;;24.00;72.30;;;;;;5175394;28;20280;-52
2021/07/20 11:18:06;;;;;;;;;;;24.00;72.30;;;;;;5202009;28;19932;-53
2021/07/20 11:20:40;;;;;;;;;;;24.00;72.30;;;;;;5199308;28;19931;-55
2021/07/20 11:23:12;;;;;;;;;;;24.00;72.30;;;;;;5198243;28;19931;-52
2021/07/20 11:25:47;;;;;;;;;;;24.00;72.30;;;;;;5191250;28;19936;-52
2021/07/20 11:28:20;;;;;;;;;;;24.00;72.20;;;;;;5193980;28;19929;-52
2021/07/20 11:30:54;;;;;;;;;;;24.00;72.30;;;;;;5195872;28;20412;-56
2021/07/20 11:33:30;;;;;;;;;;;24.10;72.40;;;;;;5193272;28;19925;-56
2021/07/20 11:36:19;;;;;;;;;;;24.00;72.30;;;;;;5192444;28;19932;-53
2021/07/20 11:38:53;;;;;;;;;;;24.00;72.30;;;;;;5186731;28;19932;-55
2021/07/20 11:41:35;;;;;;;;;;;24.00;72.30;;;;;;5178573;28;19925;-56
2021/07/20 11:44:13;;;;;;;;;;;24.10;72.30;;;;;;5194943;28;20327;-56
2021/07/20 11:47:11;;;;;;;;;;;24.10;72.30;;;;;;5202530;28;19925;-56
2021/07/20 11:50:00;;;;;;;;;;;24.10;72.20;;;;;;5193893;28;19956;-54
2021/07/20 11:52:50;;;;;;;;;;;24.10;72.20;;;;;;5196900;28;19951;-58
2021/07/20 11:55:42;;;;;;;;;;;24.10;72.20;;;;;;5186693;28;20541;-59
2021/07/20 11:58:33;;;;;;;;;;;24.10;72.20;;;;;;5165622;28;19931;-57
2021/07/20 12:01:08;;;;;;;;;;;24.20;72.60;;;;;;5155884;28;21016;-59
2021/07/20 12:03:43;;;;;;;;;;;24.30;72.40;;;;;;5145762;28;19929;-58
2021/07/20 12:06:37;;;;;;;;;;;24.40;72.30;;;;;;5161494;28;19929;-59
2021/07/20 12:09:09;;;;;;;;;;;24.40;72.10;;;;;;5166828;28;20823;-57
2021/07/20 12:11:46;;;;;;;;;;;24.50;72.60;;;;;;5144795;28;20145;-59
2021/07/20 12:14:20;;;;;;;;;;;24.60;71.90;;;;;;5149438;28;20424;-59
2021/07/20 12:16:53;;;;;;;;;;;24.60;71.80;;;;;;5169767;28;19929;-58
2021/07/20 12:19:27;;;;;;;;;;;24.70;72.20;;;;;;5160694;28;19936;-59
2021/07/20 12:22:06;;;;;;;;;;;24.70;71.60;;;;;;5151940;28;20405;-59
2021/07/20 12:24:39;;;;;;;;;;;24.80;71.60;;;;;;5152291;28;19925;-59
2021/07/20 12:27:11;;;;;;;;;;;24.80;71.50;;;;;;5173996;28;19932;-59
2021/07/20 12:29:46;;;;;;;;;;;24.90;71.40;;;;;;5137910;28;20504;-58
2021/07/20 12:32:19;;;;;;;;;;;24.90;71.20;;;;;;5155139;28;21267;-59
2021/07/20 12:34:51;;;;;;;;;;;25.00;71.10;;;;;;5152045;28;21483;-60
2021/07/20 12:37:24;;;;;;;;;;;25.00;70.90;;;;;;5138547;28;19925;-59
2021/07/20 12:39:57;;;;;;;;;;;25.10;70.90;;;;;;5149002;28;20347;-58
2021/07/20 12:42:34;;;;;;;;;;;25.10;70.80;;;;;;5137172;28;19928;-58
2021/07/20 12:45:07;;;;;;;;;;;25.20;70.60;;;;;;5133823;28;19928;-57
2021/07/20 12:47:44;;;;;;;;;;;25.30;70.60;;;;;;5148105;28;19924;-57
2021/07/20 12:50:18;;;;;;;;;;;25.40;70.50;;;;;;5151012;28;19925;-57
2021/07/20 12:52:51;;;;;;;;;;;25.40;70.30;;;;;;5166430;28;19925;-58
2021/07/20 12:55:24;;;;;;;;;;;25.50;70.10;;;;;;5156556;28;19932;-56
2021/07/20 12:57:57;;;;;;;;;;;25.50;70.00;;;;;;5168672;28;20671;-59
2021/07/20 13:00:39;;;;;;;;;;;25.60;70.00;;;;;;5146658;28;21508;-59
2021/07/20 13:03:12;;;;;;;;;;;25.60;69.80;;;;;;5137126;28;19947;-59
2021/07/20 13:05:45;;;;;;;;;;;25.70;69.70;;;;;;5142836;28;19960;-59
2021/07/20 13:08:18;;;;;;;;;;;25.70;69.80;;;;;;5129193;28;19929;-57
2021/07/20 13:10:52;;;;;;;;;;;25.70;69.60;;;;;;5152758;28;19936;-59
2021/07/20 13:13:27;;;;;;;;;;;25.80;69.50;;;;;;5150362;28;19929;-59
2021/07/20 13:16:00;;;;;;;;;;;25.80;69.50;;;;;;5131467;28;19928;-59
2021/07/20 13:18:33;;;;;;;;;;;25.80;69.40;;;;;;5157068;28;19936;-58
2021/07/20 13:21:23;;;;;;;;;;;25.90;69.40;;;;;;5146616;28;19924;-59
2021/07/20 13:23:57;;;;;;;;;;;25.90;69.30;;;;;;5155261;28;20237;-57
2021/07/20 13:26:34;;;;;;;;;;;25.90;69.30;;;;;;5137272;28;20450;-59
2021/07/20 13:29:09;;;;;;;;;;;25.90;69.20;;;;;;5156398;28;19931;-59
2021/07/20 13:31:43;;;;;;;;;;;26.00;69.20;;;;;;5161429;28;20415;-59
2021/07/20 13:34:16;;;;;;;;;;;26.00;70.40;;;;;;5158918;28;19936;-59
2021/07/20 13:36:50;;;;;;;;;;;26.00;69.10;;;;;;5170007;28;20459;-59
2021/07/20 13:39:22;;;;;;;;;;;26.10;69.00;;;;;;5161940;28;19932;-60
2021/07/20 13:41:55;;;;;;;;;;;26.10;68.90;;;;;;5155744;28;19925;-56
2021/07/20 13:44:27;;;;;;;;;;;26.20;68.90;;;;;;5169766;28;19928;-58
2021/07/20 13:47:01;;;;;;;;;;;26.10;68.80;;;;;;5172454;28;19967;-59
2021/07/20 13:49:34;;;;;;;;;;;26.20;68.80;;;;;;5153923;28;19921;-56
2021/07/20 13:52:07;;;;;;;;;;;26.20;68.90;;;;;;5168596;28;19936;-56
2021/07/20 13:54:43;;;;;;;;;;;26.20;68.70;;;;;;5202581;28;20360;-56
2021/07/20 13:57:16;;;;;;;;;;;26.30;68.60;;;;;;5195865;28;19929;-56
2021/07/20 13:59:51;;;;;;;;;;;26.30;68.50;;;;;;5191105;28;19940;-54
2021/07/20 14:02:23;;;;;;;;;;;26.20;68.30;;;;;;5199673;28;20234;-55
2021/07/20 14:04:55;;;;;;;;;;;26.20;68.30;;;;;;5183209;28;19925;-56
2021/07/20 14:07:28;;;;;;;;;;;26.20;69.00;;;;;;5196632;28;19921;-56
2021/07/20 14:10:01;;;;;;;;;;;26.10;68.50;;;;;;5195527;28;19936;-56
2021/07/20 14:12:34;;;;;;;;;;;26.00;68.60;;;;;;5191599;28;20001;-54
2021/07/20 14:15:08;;;;;;;;;;;26.00;68.70;;;;;;5190139;28;19925;-55
2021/07/20 14:17:41;;;;;;;;;;;25.90;68.80;;;;;;5187086;28;19929;-54
2021/07/20 14:20:17;;;;;;;;;;;25.90;68.90;;;;;;5178418;28;19929;-56
2021/07/20 14:22:49;;;;;;;;;;;25.80;68.90;;;;;;5179612;28;19929;-56
2021/07/20 14:25:21;;;;;;;;;;;25.80;69.00;;;;;;5196226;28;19936;-56
2021/07/20 14:27:55;;;;;;;;;;;25.70;69.10;;;;;;5196540;28;20472;-52
2021/07/20 14:30:28;;;;;;;;;;;25.70;69.10;;;;;;5192056;28;19921;-56
2021/07/20 14:33:01;;;;;;;;;;;25.60;69.00;;;;;;5172669;28;19929;-52
2021/07/20 14:35:37;;;;;;;;;;;25.60;69.00;;;;;;5188127;28;20223;-53
2021/07/20 14:38:13;;;;;;;;;;;25.60;68.90;;;;;;5203323;28;19925;-51
2021/07/20 14:40:46;;;;;;;;;;;25.50;68.80;;;;;;5204630;28;19935;-52
2021/07/20 14:43:19;;;;;;;;;;;25.50;68.80;;;;;;5202757;28;20640;-54
2021/07/20 14:46:05;;;;;;;;;;;25.40;68.80;;;;;;5218426;28;19932;-54
2021/07/20 14:48:47;;;;;;;;;;;25.40;68.90;;;;;;5176540;28;19928;-56
2021/07/20 14:51:32;;;;;;;;;;;25.40;68.90;;;;;;5160205;28;19928;-59
2021/07/20 14:54:21;;;;;;;;;;;25.40;69.40;;;;;;5167898;28;19920;-59
2021/07/20 14:56:55;;;;;;;;;;;25.40;69.40;;;;;;5163857;28;19925;-59
2021/07/20 14:59:38;;;;;;;;;;;25.30;69.20;;;;;;5163405;28;19963;-59
2021/07/20 15:02:30;;;;;;;;;;;25.30;69.20;;;;;;5160341;28;19924;-56
2021/07/20 15:05:35;;;;;;;;;;;25.30;69.50;;;;;;5159790;28;20871;-59
2021/07/20 15:08:08;;;;;;;;;;;25.30;69.20;;;;;;5108388;28;19935;-59
2021/07/20 15:10:40;;;;;;;;;;;25.40;69.30;;;;;;5164323;28;19925;-59
2021/07/20 15:13:13;;;;;;;;;;;25.40;69.20;;;;;;5165566;28;19932;-58